Time;durP1;ratioP1;P1;durP2;ratioP2;P2;SDS_P1;SDS_P2;PMS_P1;PMS_P2;Temp;Humidity;BMP_temperature;BMP_pressure;BME280_temperature;BME280_humidity;BME280_pressure;Samples;Min_cycle;Max_cycle;Signal;HPM_P1;HPM_P2
2022/08/22 00:00:57;;;;;;;;;3.00;3.00;;;;;;;;5062213;28;61781;-76
2022/08/22 00:03:29;;;;;;;;;5.00;3.00;;;;;;;;5060927;28;61715;-75
2022/08/22 00:05:54;;;;;;;;;4.33;2.00;;;;;;;;5063022;28;62103;-76
2022/08/22 00:08:34;;;;;;;;;2.67;2.67;;;;;;;;5062772;28;61745;-76
2022/08/22 00:11:05;;;;;;;;;3.25;3.25;;;;;;;;5062170;28;61837;-75
2022/08/22 00:13:31;;;;;;;;;2.00;2.00;;;;;;;;5062392;28;61758;-76
2022/08/22 00:16:02;;;;;;;;;2.33;2.33;;;;;;;;5062718;28;61986;-76
2022/08/22 00:18:37;;;;;;;;;3.00;3.00;;;;;;;;5060815;28;61912;-76
2022/08/22 00:21:07;;;;;;;;;3.00;3.00;;;;;;;;5094612;27;64201;-76
2022/08/22 00:23:51;;;;;;;;;2.00;2.00;;;;;;;;5094612;27;61829;-75
2022/08/22 00:26:40;;;;;;;;;2.00;2.00;;;;;;;;5061095;28;61986;-76
2022/08/22 00:29:07;;;;;;;;;2.67;1.67;;;;;;;;4983070;28;62194;-75
2022/08/22 00:31:38;;;;;;;;;1.67;1.67;;;;;;;;4999433;28;62701;-74
2022/08/22 00:34:16;;;;;;;;;1.67;1.67;;;;;;;;4999184;28;62065;-75
2022/08/22 00:36:49;;;;;;;;;4.33;2.00;;;;;;;;4983161;28;61805;-75
2022/08/22 00:39:15;;;;;;;;;1.00;1.00;;;;;;;;4983262;28;61866;-75
2022/08/22 00:41:52;;;;;;;;;1.00;1.00;;;;;;;;4982447;28;62371;-75
2022/08/22 00:44:35;;;;;;;;;3.00;2.67;;;;;;;;4963956;28;61974;-75
2022/08/22 00:47:10;;;;;;;;;1.00;1.00;;;;;;;;4963463;28;61744;-75
2022/08/22 00:49:54;;;;;;;;;3.33;1.33;;;;;;;;4963877;28;62249;-75
2022/08/22 00:52:25;;;;;;;;;4.00;3.00;;;;;;;;4982038;28;61943;-75
2022/08/22 00:54:50;;;;;;;;;3.00;2.00;;;;;;;;4982564;28;61958;-75
2022/08/22 00:57:34;;;;;;;;;3.00;2.00;;;;;;;;4982143;28;61884;-75
2022/08/22 01:00:12;;;;;;;;;3.00;3.00;;;;;;;;4982563;28;62204;-75
2022/08/22 01:02:40;;;;;;;;;1.67;1.67;;;;;;;;4965307;28;64913;-75
2022/08/22 01:05:17;;;;;;;;;4.00;2.00;;;;;;;;4970229;28;62044;-75
2022/08/22 01:07:50;;;;;;;;;1.00;1.00;;;;;;;;5044449;28;62226;-75
2022/08/22 01:10:16;;;;;;;;;2.50;2.50;;;;;;;;5044201;28;61841;-77
2022/08/22 01:13:04;;;;;;;;;3.00;3.00;;;;;;;;5043740;28;61879;-75
2022/08/22 01:15:32;;;;;;;;;2.33;1.00;;;;;;;;5051304;28;62021;-75
2022/08/22 01:18:07;;;;;;;;;1.00;1.00;;;;;;;;5042142;28;61896;-75
2022/08/22 01:20:38;;;;;;;;;3.25;2.25;;;;;;;;5044498;28;61788;-75
2022/08/22 01:23:06;;;;;;;;;1.25;1.25;;;;;;;;5043094;28;62115;-75
2022/08/22 01:25:35;;;;;;;;;4.25;1.50;;;;;;;;5042411;28;61846;-75
2022/08/22 01:28:00;;;;;;;;;2.50;2.50;;;;;;;;5042545;28;61864;-76
2022/08/22 01:30:25;;;;;;;;;3.00;1.75;;;;;;;;5042996;28;62227;-76
2022/08/22 01:32:53;;;;;;;;;2.00;2.00;;;;;;;;5042985;28;62007;-76
2022/08/22 01:35:27;;;;;;;;;3.75;2.25;;;;;;;;5043732;28;62064;-75
2022/08/22 01:37:52;;;;;;;;;2.00;2.00;;;;;;;;5042400;28;62384;-75
2022/08/22 01:40:36;;;;;;;;;4.00;1.75;;;;;;;;5057272;28;61901;-75
2022/08/22 01:43:01;;;;;;;;;2.00;2.00;;;;;;;;5061903;28;63784;-76
2022/08/22 01:45:39;;;;;;;;;1.00;1.00;;;;;;;;5062571;28;61779;-76
2022/08/22 01:48:04;;;;;;;;;3.00;1.50;;;;;;;;5019709;28;1198008;-76
2022/08/22 01:50:29;;;;;;;;;3.00;3.00;;;;;;;;5063785;28;61822;-75
2022/08/22 01:53:01;;;;;;;;;2.67;2.00;;;;;;;;5062751;28;62174;-76
2022/08/22 01:55:44;;;;;;;;;3.00;3.00;;;;;;;;5064313;28;61703;-76
2022/08/22 01:58:18;;;;;;;;;2.00;1.00;;;;;;;;5064332;28;61970;-75
2022/08/22 02:01:06;;;;;;;;;2.00;0.00;;;;;;;;5064662;28;61692;-75
2022/08/22 02:03:40;;;;;;;;;2.00;1.00;;;;;;;;5063627;28;63020;-75
2022/08/22 02:06:10;;;;;;;;;1.75;1.75;;;;;;;;5064518;28;61684;-76
2022/08/22 02:08:38;;;;;;;;;2.00;2.00;;;;;;;;5096997;27;61991;-76
2022/08/22 02:11:11;;;;;;;;;2.75;1.75;;;;;;;;5064818;28;61797;-75
2022/08/22 02:13:55;;;;;;;;;6.00;2.25;;;;;;;;5063872;28;63283;-77
2022/08/22 02:16:31;;;;;;;;;3.00;1.50;;;;;;;;5097009;27;61899;-75
2022/08/22 02:18:59;;;;;;;;;2.75;1.75;;;;;;;;5096669;27;61899;-75
2022/08/22 02:21:40;;;;;;;;;3.33;1.67;;;;;;;;5064341;28;61758;-76
2022/08/22 02:24:15;;;;;;;;;1.75;1.75;;;;;;;;5063192;28;62883;-75
2022/08/22 02:26:48;;;;;;;;;1.50;1.50;;;;;;;;5096821;27;61950;-76
2022/08/22 02:29:37;;;;;;;;;3.50;3.50;;;;;;;;5064110;28;61920;-78
2022/08/22 02:32:17;;;;;;;;;2.00;2.00;;;;;;;;5001751;28;62220;-75
2022/08/22 02:34:42;;;;;;;;;6.25;3.00;;;;;;;;4984254;28;64814;-75
2022/08/22 02:37:20;;;;;;;;;3.00;2.00;;;;;;;;4985255;28;61862;-75
2022/08/22 02:39:48;;;;;;;;;2.25;1.00;;;;;;;;4983934;28;62042;-75
2022/08/22 02:42:13;;;;;;;;;0.75;0.75;;;;;;;;4965568;28;62000;-76
2022/08/22 02:44:47;;;;;;;;;2.50;1.25;;;;;;;;4981388;28;62088;-75
2022/08/22 02:47:33;;;;;;;;;2.00;1.00;;;;;;;;4981765;28;61920;-75
2022/08/22 02:50:22;;;;;;;;;1.75;1.75;;;;;;;;4971321;28;62050;-76
2022/08/22 02:52:50;;;;;;;;;2.00;2.00;;;;;;;;4981791;28;62003;-75
2022/08/22 02:55:28;;;;;;;;;2.00;2.00;;;;;;;;4980951;28;62032;-75
2022/08/22 02:58:01;;;;;;;;;2.00;2.00;;;;;;;;4981488;28;63078;-75
2022/08/22 03:00:28;;;;;;;;;3.00;1.75;;;;;;;;4965358;28;61967;-76
2022/08/22 03:03:00;;;;;;;;;3.00;3.00;;;;;;;;4981252;28;62076;-75
2022/08/22 03:05:47;;;;;;;;;4.25;2.00;;;;;;;;4964339;28;64044;-75
2022/08/22 03:08:12;;;;;;;;;3.50;1.75;;;;;;;;4973773;28;61814;-76
2022/08/22 03:10:40;;;;;;;;;3.25;1.50;;;;;;;;5043433;28;61679;-75
2022/08/22 03:13:08;;;;;;;;;2.25;2.25;;;;;;;;5042893;28;61944;-75
2022/08/22 03:15:36;;;;;;;;;2.00;1.00;;;;;;;;5042503;28;61954;-75
2022/08/22 03:18:04;;;;;;;;;1.50;1.50;;;;;;;;5041476;28;61965;-75
2022/08/22 03:20:36;;;;;;;;;4.25;1.00;;;;;;;;5043333;28;61893;-75
2022/08/22 03:23:06;;;;;;;;;4.00;3.00;;;;;;;;5041556;28;62101;-75
2022/08/22 03:25:42;;;;;;;;;2.75;1.75;;;;;;;;5041205;28;64797;-75
2022/08/22 03:28:17;;;;;;;;;1.00;1.00;;;;;;;;5042856;28;62154;-75
2022/08/22 03:30:54;;;;;;;;;2.00;2.00;;;;;;;;5043016;28;61694;-75
2022/08/22 03:33:23;;;;;;;;;2.00;2.00;;;;;;;;5042823;28;61825;-75
2022/08/22 03:35:49;;;;;;;;;2.00;1.00;;;;;;;;5040869;28;64614;-75
2022/08/22 03:38:20;;;;;;;;;3.75;3.00;;;;;;;;5042600;28;61790;-75
2022/08/22 03:40:48;;;;;;;;;1.75;1.75;;;;;;;;5060386;28;61804;-75
2022/08/22 03:43:13;;;;;;;;;3.50;1.50;;;;;;;;5063352;28;61733;-75
2022/08/22 03:45:54;;;;;;;;;2.00;2.00;;;;;;;;5062359;28;61923;-75
2022/08/22 03:48:25;;;;;;;;;2.75;2.75;;;;;;;;5062373;28;62139;-75
2022/08/22 03:51:09;;;;;;;;;2.00;2.00;;;;;;;;5062963;28;61885;-75
2022/08/22 03:53:41;;;;;;;;;1.25;1.25;;;;;;;;5061347;28;61734;-75
2022/08/22 03:56:06;;;;;;;;;4.00;3.00;;;;;;;;5062280;28;62089;-75
2022/08/22 03:58:32;;;;;;;;;2.00;2.00;;;;;;;;5062340;28;61892;-76
2022/08/22 04:01:05;;;;;;;;;2.00;2.00;;;;;;;;5063176;28;61721;-75
2022/08/22 04:03:49;;;;;;;;;2.00;2.00;;;;;;;;5062495;28;61773;-75
2022/08/22 04:06:15;;;;;;;;;2.00;2.00;;;;;;;;5060629;28;63481;-75
2022/08/22 04:08:58;;;;;;;;;2.25;2.25;;;;;;;;5062363;28;62237;-75
2022/08/22 04:11:37;;;;;;;;;3.00;3.00;;;;;;;;5061435;28;61908;-75
2022/08/22 04:14:11;;;;;;;;;2.00;2.00;;;;;;;;5061396;28;61849;-75
2022/08/22 04:16:56;;;;;;;;;4.50;2.00;;;;;;;;5061792;28;62108;-75
2022/08/22 04:19:27;;;;;;;;;4.75;2.00;;;;;;;;5060553;28;61971;-75
2022/08/22 04:21:56;;;;;;;;;4.00;3.00;;;;;;;;5062467;28;61958;-76
2022/08/22 04:24:38;;;;;;;;;2.00;2.00;;;;;;;;5060861;28;61824;-75
2022/08/22 04:27:14;;;;;;;;;2.50;2.50;;;;;;;;5060599;28;63940;-75
2022/08/22 04:29:47;;;;;;;;;3.00;1.00;;;;;;;;5087166;27;62624;-75
2022/08/22 04:32:15;;;;;;;;;3.25;1.00;;;;;;;;5061669;28;61954;-75
2022/08/22 04:34:57;;;;;;;;;1.50;1.50;;;;;;;;5061220;28;62137;-75
2022/08/22 04:37:33;;;;;;;;;5.25;3.75;;;;;;;;5087070;27;64080;-75
2022/08/22 04:40:02;;;;;;;;;5.75;2.00;;;;;;;;5092618;27;62036;-75
2022/08/22 04:42:33;;;;;;;;;2.00;2.00;;;;;;;;5061982;28;61917;-75
2022/08/22 04:45:01;;;;;;;;;2.25;2.25;;;;;;;;5060742;28;61815;-75
2022/08/22 04:47:30;;;;;;;;;3.75;2.00;;;;;;;;5059393;28;64824;-76
2022/08/22 04:49:56;;;;;;;;;1.00;1.00;;;;;;;;5060998;28;61793;-75
2022/08/22 04:52:35;;;;;;;;;2.50;2.50;;;;;;;;5061653;28;61781;-75
2022/08/22 04:55:15;;;;;;;;;2.00;1.00;;;;;;;;5059001;28;61856;-75
2022/08/22 04:57:44;;;;;;;;;2.25;2.25;;;;;;;;5058106;28;63945;-76
2022/08/22 05:00:10;;;;;;;;;3.00;3.00;;;;;;;;5060278;28;61818;-76
2022/08/22 05:02:38;;;;;;;;;4.00;2.75;;;;;;;;5061192;28;61768;-76
2022/08/22 05:05:06;;;;;;;;;4.75;2.75;;;;;;;;5060948;28;62244;-75
2022/08/22 05:07:36;;;;;;;;;2.75;2.00;;;;;;;;5059944;28;64516;-76
2022/08/22 05:10:16;;;;;;;;;4.75;1.50;;;;;;;;5060509;28;62210;-75
2022/08/22 05:12:46;;;;;;;;;2.00;1.00;;;;;;;;5059842;28;61792;-78
2022/08/22 05:15:32;;;;;;;;;3.00;1.25;;;;;;;;5060660;28;61801;-77
2022/08/22 05:17:59;;;;;;;;;3.00;2.00;;;;;;;;5058262;28;64895;-77
2022/08/22 05:20:26;;;;;;;;;3.50;2.00;;;;;;;;5059776;28;62187;-76
2022/08/22 05:22:55;;;;;;;;;5.00;2.00;;;;;;;;5061264;28;61785;-77
2022/08/22 05:25:32;;;;;;;;;2.75;2.75;;;;;;;;5061811;28;61792;-77
2022/08/22 05:28:14;;;;;;;;;2.50;1.00;;;;;;;;5059354;28;64081;-76
2022/08/22 05:30:42;;;;;;;;;2.00;2.00;;;;;;;;5061110;28;61749;-77
2022/08/22 05:33:18;;;;;;;;;3.00;2.00;;;;;;;;5060433;28;61980;-78
2022/08/22 05:35:46;;;;;;;;;3.25;2.75;;;;;;;;5062459;28;62201;-76
2022/08/22 05:38:13;;;;;;;;;2.25;2.00;;;;;;;;5063510;28;63262;-76
2022/08/22 05:40:39;;;;;;;;;2.00;2.00;;;;;;;;5062906;28;62105;-76
2022/08/22 05:43:05;;;;;;;;;5.00;2.00;;;;;;;;5062760;28;61890;-76
2022/08/22 05:45:32;;;;;;;;;5.00;3.75;;;;;;;;5063841;28;62087;-76
2022/08/22 05:48:02;;;;;;;;;4.50;3.00;;;;;;;;5062204;28;64158;-75
2022/08/22 05:50:40;;;;;;;;;2.00;2.00;;;;;;;;5062592;28;62230;-75
2022/08/22 05:53:11;;;;;;;;;3.50;2.50;;;;;;;;5061571;28;62058;-76
2022/08/22 05:55:49;;;;;;;;;5.00;2.50;;;;;;;;5063087;28;61888;-75
2022/08/22 05:58:14;;;;;;;;;5.25;2.00;;;;;;;;5060695;28;64847;-76
2022/08/22 06:00:43;;;;;;;;;3.25;3.25;;;;;;;;5063697;28;61975;-75
2022/08/22 06:03:08;;;;;;;;;3.00;3.00;;;;;;;;5062083;28;61904;-76
2022/08/22 06:05:38;;;;;;;;;3.00;3.00;;;;;;;;5063774;28;61817;-76
2022/08/22 06:08:10;;;;;;;;;4.75;4.25;;;;;;;;5061972;28;63880;-75
2022/08/22 06:10:38;;;;;;;;;3.75;3.75;;;;;;;;5062944;28;61982;-76
2022/08/22 06:13:22;;;;;;;;;4.00;4.00;;;;;;;;5064250;28;61943;-75
2022/08/22 06:15:48;;;;;;;;;3.00;2.75;;;;;;;;5062711;28;61901;-76
2022/08/22 06:18:15;;;;;;;;;3.25;3.00;;;;;;;;5063461;28;62934;-76
2022/08/22 06:20:47;;;;;;;;;5.00;4.00;;;;;;;;5063624;28;61971;-76
2022/08/22 06:23:14;;;;;;;;;2.25;2.00;;;;;;;;5060986;28;61934;-76
2022/08/22 06:25:43;;;;;;;;;3.00;2.25;;;;;;;;5062097;28;61955;-76
2022/08/22 06:28:11;;;;;;;;;2.50;2.50;;;;;;;;5092704;27;64907;-75
2022/08/22 06:30:38;;;;;;;;;6.75;3.50;;;;;;;;5043683;28;61858;-74
2022/08/22 06:33:08;;;;;;;;;4.00;3.00;;;;;;;;5043318;28;62161;-75
2022/08/22 06:38:27;;;;;;;;;8.00;4.00;;;;;;;;5043110;28;62401;-75
2022/08/22 06:40:53;;;;;;;;;5.00;3.00;;;;;;;;5063479;28;61758;-77
2022/08/22 06:43:19;;;;;;;;;5.00;3.25;;;;;;;;5063874;28;61769;-79
2022/08/22 06:45:45;;;;;;;;;2.00;2.00;;;;;;;;5096625;27;61777;-76
2022/08/22 06:48:14;;;;;;;;;2.00;2.00;;;;;;;;5061009;28;61781;-77
2022/08/22 06:50:44;;;;;;;;;4.00;2.50;;;;;;;;5096250;27;61947;-77
2022/08/22 06:53:11;;;;;;;;;2.25;2.25;;;;;;;;5095549;27;61856;-77
2022/08/22 06:55:39;;;;;;;;;4.50;3.25;;;;;;;;5063802;28;61978;-76
2022/08/22 06:58:06;;;;;;;;;4.75;2.50;;;;;;;;5062606;28;63300;-77
2022/08/22 07:00:33;;;;;;;;;2.75;2.00;;;;;;;;5062213;28;61838;-77
2022/08/22 07:03:19;;;;;;;;;4.25;2.00;;;;;;;;5096206;27;62045;-76
2022/08/22 07:05:45;;;;;;;;;2.50;2.50;;;;;;;;5096573;27;62157;-76
2022/08/22 07:08:14;;;;;;;;;4.00;2.25;;;;;;;;5095222;27;63475;-76
2022/08/22 07:10:39;;;;;;;;;6.00;4.00;;;;;;;;5063833;28;61793;-77
2022/08/22 07:13:07;;;;;;;;;3.50;2.25;;;;;;;;5063518;28;61801;-77
2022/08/22 07:15:39;;;;;;;;;3.50;2.25;;;;;;;;5062545;28;62238;-76
2022/08/22 07:18:06;;;;;;;;;5.00;3.50;;;;;;;;5094706;27;64079;-77
2022/08/22 07:20:37;;;;;;;;;2.67;2.67;;;;;;;;5061999;28;61757;-76
2022/08/22 07:23:02;;;;;;;;;3.00;2.00;;;;;;;;5063119;28;61668;-77
2022/08/22 07:25:28;;;;;;;;;6.67;3.00;;;;;;;;5063660;28;61658;-76
2022/08/22 07:28:00;;;;;;;;;4.33;2.00;;;;;;;;5095008;27;63986;-76
2022/08/22 07:30:32;;;;;;;;;2.33;2.33;;;;;;;;5063612;28;61860;-76
2022/08/22 07:33:00;;;;;;;;;4.00;2.00;;;;;;;;5095475;27;61919;-77
2022/08/22 07:35:32;;;;;;;;;4.50;3.00;;;;;;;;5095905;27;61726;-76
2022/08/22 07:38:04;;;;;;;;;3.00;3.00;;;;;;;;5062262;28;61981;-76
2022/08/22 07:40:30;;;;;;;;;4.00;1.33;;;;;;;;5095625;27;61943;-76
2022/08/22 07:42:56;;;;;;;;;3.00;2.00;;;;;;;;5061530;28;61744;-77
2022/08/22 07:45:32;;;;;;;;;3.00;3.00;;;;;;;;5061748;28;61864;-77
2022/08/22 07:48:16;;;;;;;;;6.00;3.00;;;;;;;;5094341;27;64746;-77
2022/08/22 07:50:49;;;;;;;;;4.67;3.33;;;;;;;;5063037;28;61833;-76
2022/08/22 07:53:19;;;;;;;;;5.00;4.00;;;;;;;;5062570;28;61831;-76
2022/08/22 07:55:46;;;;;;;;;6.50;4.00;;;;;;;;5095805;27;62109;-76
2022/08/22 07:58:12;;;;;;;;;2.00;2.00;;;;;;;;5061059;28;61946;-77
2022/08/22 08:00:43;;;;;;;;;3.00;2.33;;;;;;;;5062833;28;61751;-76
2022/08/22 08:03:10;;;;;;;;;5.67;4.00;;;;;;;;5062309;28;62206;-77
2022/08/22 08:05:37;;;;;;;;;4.33;4.33;;;;;;;;5061607;28;62070;-77
2022/08/22 08:08:07;;;;;;;;;2.33;2.33;;;;;;;;5060590;28;64522;-76
2022/08/22 08:10:35;;;;;;;;;2.00;2.00;;;;;;;;5062757;28;61877;-76
2022/08/22 08:13:02;;;;;;;;;5.33;2.33;;;;;;;;5095099;27;62038;-76
2022/08/22 08:15:29;;;;;;;;;3.00;2.00;;;;;;;;5062720;28;61698;-76
2022/08/22 08:17:59;;;;;;;;;3.00;3.00;;;;;;;;5061589;28;61979;-77
2022/08/22 08:20:26;;;;;;;;;2.33;2.00;;;;;;;;5062326;28;61669;-76
2022/08/22 08:22:53;;;;;;;;;4.33;2.67;;;;;;;;5062490;28;61936;-76
2022/08/22 08:25:29;;;;;;;;;2.33;2.33;;;;;;;;5062215;28;61706;-77
2022/08/22 08:30:58;;;;;;;;;3.67;2.33;;;;;;;;5062424;28;62222;-77
2022/08/22 08:33:26;;;;;;;;;2.33;2.33;;;;;;;;5061917;28;62244;-77
2022/08/22 08:35:58;;;;;;;;;7.33;3.33;;;;;;;;5062602;28;62409;-77
2022/08/22 08:38:27;;;;;;;;;5.00;2.00;;;;;;;;5059899;28;64100;-77
2022/08/22 08:40:55;;;;;;;;;2.00;2.00;;;;;;;;5094559;27;61776;-77
2022/08/22 08:43:33;;;;;;;;;7.33;3.00;;;;;;;;5061951;28;61779;-77
2022/08/22 08:46:01;;;;;;;;;3.00;2.00;;;;;;;;5062534;28;61631;-77
2022/08/22 08:48:39;;;;;;;;;5.00;2.00;;;;;;;;5059350;28;64728;-77
2022/08/22 08:51:10;;;;;;;;;4.00;3.00;;;;;;;;5060918;28;61909;-76
2022/08/22 08:53:55;;;;;;;;;4.00;4.00;;;;;;;;5060500;28;61815;-77
2022/08/22 08:56:20;;;;;;;;;5.00;2.00;;;;;;;;5062085;28;62000;-76
2022/08/22 08:58:51;;;;;;;;;3.67;3.67;;;;;;;;5059747;28;63539;-76
2022/08/22 09:01:16;;;;;;;;;4.00;3.00;;;;;;;;5060382;28;61785;-76
2022/08/22 09:03:44;;;;;;;;;4.00;2.00;;;;;;;;5061823;28;61663;-77
2022/08/22 09:06:09;;;;;;;;;3.67;3.67;;;;;;;;5061081;28;61918;-77
2022/08/22 09:08:53;;;;;;;;;5.00;3.00;;;;;;;;5061070;28;61958;-76
2022/08/22 09:11:21;;;;;;;;;1.67;1.67;;;;;;;;5063022;28;61908;-76
2022/08/22 09:13:56;;;;;;;;;2.67;1.67;;;;;;;;5064177;28;62210;-77
2022/08/22 09:16:24;;;;;;;;;1.67;1.67;;;;;;;;5064316;28;61921;-77
2022/08/22 09:19:02;;;;;;;;;6.00;3.33;;;;;;;;5062916;28;63732;-77
2022/08/22 09:21:36;;;;;;;;;2.67;2.67;;;;;;;;5065176;28;62112;-77
2022/08/22 09:24:14;;;;;;;;;4.00;2.00;;;;;;;;5062984;28;61781;-77
2022/08/22 09:26:56;;;;;;;;;2.33;2.00;;;;;;;;5065427;28;61853;-76
2022/08/22 09:29:34;;;;;;;;;1.67;1.67;;;;;;;;5096892;27;65251;-77
2022/08/22 09:32:12;;;;;;;;;2.67;2.00;;;;;;;;5065278;28;62035;-76
2022/08/22 09:34:37;;;;;;;;;1.33;1.33;;;;;;;;5064633;28;61913;-77
2022/08/22 09:37:26;;;;;;;;;4.00;2.00;;;;;;;;5063957;28;61676;-77
2022/08/22 09:40:11;;;;;;;;;0.67;0.67;;;;;;;;5063930;28;62033;-76
2022/08/22 09:42:45;;;;;;;;;1.67;1.00;;;;;;;;5063520;28;61979;-77
2022/08/22 09:45:30;;;;;;;;;2.00;2.00;;;;;;;;5065048;28;61791;-77
2022/08/22 09:47:55;;;;;;;;;2.33;2.00;;;;;;;;5097069;27;61880;-77
2022/08/22 09:50:35;;;;;;;;;2.00;2.00;;;;;;;;5062645;28;63643;-77
2022/08/22 09:53:07;;;;;;;;;2.67;2.00;;;;;;;;5063294;28;61861;-77
2022/08/22 09:56:11;;;;;;;;;2.00;2.00;;;;;;;;5063487;28;61722;-77
2022/08/22 09:59:00;;;;;;;;;0.33;0.33;;;;;;;;4985376;28;61986;-77
2022/08/22 10:01:28;;;;;;;;;2.00;2.00;;;;;;;;4990940;28;64000;-76
2022/08/22 10:04:22;;;;;;;;;2.00;2.00;;;;;;;;4985305;28;61928;-76
2022/08/22 10:07:06;;;;;;;;;2.00;2.00;;;;;;;;4985432;28;62276;-77
2022/08/22 10:09:51;;;;;;;;;1.00;1.00;;;;;;;;4985360;28;62373;-77
2022/08/22 10:12:22;;;;;;;;;1.67;1.67;;;;;;;;4987943;28;61886;-76
2022/08/22 10:14:53;;;;;;;;;1.67;1.33;;;;;;;;5001946;28;62061;-76
2022/08/22 10:17:21;;;;;;;;;4.00;1.00;;;;;;;;4985496;28;61849;-77
2022/08/22 10:19:51;;;;;;;;;1.00;1.00;;;;;;;;5001306;28;62117;-77
2022/08/22 10:22:19;;;;;;;;;1.00;1.00;;;;;;;;5000977;28;61916;-77
2022/08/22 10:24:44;;;;;;;;;1.33;1.33;;;;;;;;5001384;28;62126;-77
2022/08/22 10:27:30;;;;;;;;;3.00;1.67;;;;;;;;4985428;28;61943;-77
2022/08/22 10:29:58;;;;;;;;;1.00;1.00;;;;;;;;5032836;28;61876;-77
2022/08/22 10:32:45;;;;;;;;;2.00;1.67;;;;;;;;5062438;28;64103;-77
2022/08/22 10:35:13;;;;;;;;;1.33;1.00;;;;;;;;5096688;27;61824;-77
2022/08/22 10:37:45;;;;;;;;;2.67;1.00;;;;;;;;5062302;28;61814;-77
2022/08/22 10:40:22;;;;;;;;;3.00;2.00;;;;;;;;5062511;28;61984;-77
2022/08/22 10:42:51;;;;;;;;;1.00;1.00;;;;;;;;5061989;28;64018;-76
2022/08/22 10:45:26;;;;;;;;;1.33;1.33;;;;;;;;5063908;28;61864;-77
2022/08/22 10:47:51;;;;;;;;;1.67;1.67;;;;;;;;5062087;28;61912;-78
2022/08/22 10:50:22;;;;;;;;;2.00;1.00;;;;;;;;5063927;28;61970;-77
2022/08/22 10:52:50;;;;;;;;;3.33;1.33;;;;;;;;5061818;28;64030;-77
2022/08/22 10:55:19;;;;;;;;;2.00;1.33;;;;;;;;5096314;27;61760;-77
2022/08/22 10:57:57;;;;;;;;;2.00;1.67;;;;;;;;5063748;28;62299;-76
2022/08/22 11:00:34;;;;;;;;;1.00;1.00;;;;;;;;5062415;28;61956;-77
2022/08/22 11:03:05;;;;;;;;;0.67;0.67;;;;;;;;5062896;28;61888;-77
2022/08/22 11:05:33;;;;;;;;;0.67;0.67;;;;;;;;5062294;28;62054;-77
2022/08/22 11:08:17;;;;;;;;;1.67;1.00;;;;;;;;5096444;27;61733;-77
2022/08/22 11:10:49;;;;;;;;;2.33;0.67;;;;;;;;5063575;28;61721;-77
2022/08/22 11:13:14;;;;;;;;;3.00;1.00;;;;;;;;5061278;28;63805;-77
2022/08/22 11:15:53;;;;;;;;;2.00;1.67;;;;;;;;5062126;28;61809;-77
2022/08/22 11:18:25;;;;;;;;;1.00;1.00;;;;;;;;5063103;28;61782;-77
2022/08/22 11:21:03;;;;;;;;;4.67;1.00;;;;;;;;5063305;28;61741;-77
2022/08/22 11:23:41;;;;;;;;;2.00;1.00;;;;;;;;5061247;28;63870;-77
2022/08/22 11:26:25;;;;;;;;;1.67;0.67;;;;;;;;5062003;28;61764;-77
2022/08/22 11:29:00;;;;;;;;;1.00;1.00;;;;;;;;5063041;28;61960;-77
2022/08/22 11:31:26;;;;;;;;;1.00;1.00;;;;;;;;5096235;27;62034;-77
2022/08/22 11:33:58;;;;;;;;;3.00;0.67;;;;;;;;5059801;28;63533;-77
2022/08/22 11:36:26;;;;;;;;;1.00;1.00;;;;;;;;5063307;28;61845;-77
2022/08/22 11:38:51;;;;;;;;;0.00;0.00;;;;;;;;5095337;27;62803;-77
2022/08/22 11:41:20;;;;;;;;;2.00;0.67;;;;;;;;5062138;28;61833;-77
2022/08/22 11:43:51;;;;;;;;;0.00;0.00;;;;;;;;5062500;28;61935;-76
2022/08/22 11:46:20;;;;;;;;;1.00;1.00;;;;;;;;5061866;28;61824;-76
2022/08/22 11:48:51;;;;;;;;;3.67;1.67;;;;;;;;5094702;27;62030;-76
2022/08/22 11:51:20;;;;;;;;;2.33;1.00;;;;;;;;5061870;28;62244;-76
2022/08/22 11:53:49;;;;;;;;;1.00;1.00;;;;;;;;5062056;28;62121;-76
2022/08/22 11:56:33;;;;;;;;;1.00;1.00;;;;;;;;5062898;28;61869;-77
2022/08/22 11:59:11;;;;;;;;;1.67;1.00;;;;;;;;5055549;28;61808;-76
2022/08/22 12:01:40;;;;;;;;;0.67;0.67;;;;;;;;5059979;28;61764;-76
2022/08/22 12:04:06;;;;;;;;;0.67;0.67;;;;;;;;5061360;28;62194;-76
2022/08/22 12:06:37;;;;;;;;;0.00;0.00;;;;;;;;5061597;28;61802;-76
2022/08/22 12:09:21;;;;;;;;;0.33;0.33;;;;;;;;5061330;28;62119;-76
2022/08/22 12:12:06;;;;;;;;;0.00;0.00;;;;;;;;5061566;28;62038;-76
2022/08/22 12:14:34;;;;;;;;;1.00;1.00;;;;;;;;5060507;28;65101;-77
2022/08/22 12:17:06;;;;;;;;;1.00;1.00;;;;;;;;5061153;28;61837;-77
2022/08/22 12:19:31;;;;;;;;;1.67;0.33;;;;;;;;5061895;28;61894;-76
2022/08/22 12:21:59;;;;;;;;;0.67;0.00;;;;;;;;5062491;28;61709;-77
2022/08/22 12:24:28;;;;;;;;;2.67;1.00;;;;;;;;5062008;28;62242;-76
2022/08/22 12:27:12;;;;;;;;;0.00;0.00;;;;;;;;5061069;28;62003;-77
2022/08/22 12:29:47;;;;;;;;;0.67;0.67;;;;;;;;5062497;28;62035;-77
2022/08/22 12:32:32;;;;;;;;;0.00;0.00;;;;;;;;5062551;28;62600;-76
2022/08/22 12:34:57;;;;;;;;;0.00;0.00;;;;;;;;5061201;28;62843;-77
2022/08/22 12:37:23;;;;;;;;;1.00;1.00;;;;;;;;5060869;28;61778;-77
2022/08/22 12:40:07;;;;;;;;;1.00;1.00;;;;;;;;5060674;28;61803;-76
2022/08/22 12:42:43;;;;;;;;;1.00;1.00;;;;;;;;5061406;28;61894;-77
2022/08/22 12:45:27;;;;;;;;;0.00;0.00;;;;;;;;5063530;28;62780;-76
2022/08/22 12:48:01;;;;;;;;;0.00;0.00;;;;;;;;5065218;28;61837;-77
2022/08/22 12:50:36;;;;;;;;;0.00;0.00;;;;;;;;5098489;27;61911;-76
2022/08/22 12:53:17;;;;;;;;;2.00;1.00;;;;;;;;5098545;27;62085;-77
2022/08/22 12:55:58;;;;;;;;;1.00;1.00;;;;;;;;5064026;28;63780;-77
2022/08/22 12:58:49;;;;;;;;;1.00;1.00;;;;;;;;5064343;28;61944;-77
2022/08/22 13:01:15;;;;;;;;;0.67;0.67;;;;;;;;5002749;28;61851;-77
2022/08/22 13:03:45;;;;;;;;;0.00;0.00;;;;;;;;4986683;28;61861;-77
2022/08/22 13:06:30;;;;;;;;;0.00;0.00;;;;;;;;5002447;28;63715;-76
2022/08/22 13:08:55;;;;;;;;;0.67;0.67;;;;;;;;4986442;28;62270;-76
2022/08/22 13:11:21;;;;;;;;;0.00;0.00;;;;;;;;5003196;28;62562;-76
2022/08/22 13:13:59;;;;;;;;;1.33;0.67;;;;;;;;5003348;28;61750;-76
2022/08/22 13:16:33;;;;;;;;;0.00;0.00;;;;;;;;5002389;28;63789;-76
2022/08/22 13:19:05;;;;;;;;;0.00;0.00;;;;;;;;5002432;28;61911;-76
2022/08/22 13:21:32;;;;;;;;;2.00;0.67;;;;;;;;4986553;28;62242;-76
2022/08/22 13:24:03;;;;;;;;;0.67;0.67;;;;;;;;5002628;28;62083;-77
2022/08/22 13:26:29;;;;;;;;;1.00;1.00;;;;;;;;5002476;28;62917;-77
2022/08/22 13:29:03;;;;;;;;;0.00;0.00;;;;;;;;4986067;28;61830;-76
2022/08/22 13:31:33;;;;;;;;;1.67;0.33;;;;;;;;4986187;28;62020;-77
2022/08/22 13:34:04;;;;;;;;;1.00;0.33;;;;;;;;5002376;28;61970;-77
2022/08/22 13:36:32;;;;;;;;;0.00;0.00;;;;;;;;4985801;28;63643;-77
2022/08/22 13:39:06;;;;;;;;;0.00;0.00;;;;;;;;5052447;28;61943;-77
2022/08/22 13:41:38;;;;;;;;;2.00;1.00;;;;;;;;5097828;27;61942;-76
2022/08/22 13:44:03;;;;;;;;;0.00;0.00;;;;;;;;5065146;28;61993;-76
2022/08/22 13:46:29;;;;;;;;;0.33;0.33;;;;;;;;5064226;28;62696;-76
2022/08/22 13:48:56;;;;;;;;;0.00;0.00;;;;;;;;5063065;28;61975;-77
2022/08/22 13:51:21;;;;;;;;;2.67;0.00;;;;;;;;5097399;27;61750;-76
2022/08/22 13:54:00;;;;;;;;;0.00;0.00;;;;;;;;5063584;28;62125;-76
2022/08/22 13:56:29;;;;;;;;;0.00;0.00;;;;;;;;5063575;28;61848;-76
2022/08/22 13:58:59;;;;;;;;;0.33;0.33;;;;;;;;5064337;28;61871;-76
2022/08/22 14:01:33;;;;;;;;;1.00;1.00;;;;;;;;5097305;27;61840;-76
2022/08/22 14:04:19;;;;;;;;;0.00;0.00;;;;;;;;5064826;28;61951;-76
2022/08/22 14:06:57;;;;;;;;;0.00;0.00;;;;;;;;5064262;28;61731;-77
2022/08/22 14:09:40;;;;;;;;;0.00;0.00;;;;;;;;5096755;27;61760;-77
2022/08/22 14:12:05;;;;;;;;;0.00;0.00;;;;;;;;5097454;27;61882;-77
2022/08/22 14:14:32;;;;;;;;;1.00;0.00;;;;;;;;5063103;28;61887;-77
2022/08/22 14:16:58;;;;;;;;;1.00;0.00;;;;;;;;5096902;27;64088;-77
2022/08/22 14:19:32;;;;;;;;;0.00;0.00;;;;;;;;5096361;27;62020;-77
2022/08/22 14:21:59;;;;;;;;;0.00;0.00;;;;;;;;5096987;27;61932;-77
2022/08/22 14:24:28;;;;;;;;;0.00;0.00;;;;;;;;5062899;28;61748;-77
2022/08/22 14:26:56;;;;;;;;;0.00;0.00;;;;;;;;5096516;27;63651;-77
2022/08/22 14:29:23;;;;;;;;;0.33;0.00;;;;;;;;5096502;27;62039;-77
2022/08/22 14:32:00;;;;;;;;;0.00;0.00;;;;;;;;5097071;27;61960;-77
2022/08/22 14:34:27;;;;;;;;;1.33;0.00;;;;;;;;5064136;28;62467;-77
2022/08/22 14:36:56;;;;;;;;;1.00;0.00;;;;;;;;5096323;27;62074;-76
2022/08/22 14:39:33;;;;;;;;;0.00;0.00;;;;;;;;5063353;28;61938;-77
2022/08/22 14:42:21;;;;;;;;;0.00;0.00;;;;;;;;5064297;28;61816;-76
2022/08/22 14:45:07;;;;;;;;;0.00;0.00;;;;;;;;5064263;28;61781;-77
2022/08/22 14:47:41;;;;;;;;;1.00;0.00;;;;;;;;5061893;28;64304;-77
2022/08/22 14:50:08;;;;;;;;;0.00;0.00;;;;;;;;5063357;28;62027;-76
2022/08/22 14:52:44;;;;;;;;;0.00;0.00;;;;;;;;5063899;28;61708;-77
2022/08/22 14:55:09;;;;;;;;;0.00;0.00;;;;;;;;5096577;27;61811;-76
2022/08/22 14:57:36;;;;;;;;;0.00;0.00;;;;;;;;5061350;28;63721;-76
2022/08/22 15:00:10;;;;;;;;;0.00;0.00;;;;;;;;5096530;27;62200;-76
2022/08/22 15:02:35;;;;;;;;;0.00;0.00;;;;;;;;5096465;27;61784;-76
2022/08/22 15:05:11;;;;;;;;;0.00;0.00;;;;;;;;5063880;28;61785;-76
2022/08/22 15:07:37;;;;;;;;;0.00;0.00;;;;;;;;5062250;28;62029;-76
2022/08/22 15:10:03;;;;;;;;;1.00;0.00;;;;;;;;5063334;28;61773;-77
2022/08/22 15:12:52;;;;;;;;;1.00;0.00;;;;;;;;5063387;28;61931;-76
2022/08/22 15:15:27;;;;;;;;;0.00;0.00;;;;;;;;5055945;28;61684;-76
2022/08/22 15:17:53;;;;;;;;;1.00;0.00;;;;;;;;5062990;28;62050;-76
2022/08/22 15:20:27;;;;;;;;;0.00;0.00;;;;;;;;5062986;28;62276;-76